createdAt,value
2022-07-27T00:01:21.489Z,68.84
2022-07-27T00:03:48.138Z,68.82
2022-07-27T00:06:14.902Z,68.69
2022-07-27T00:08:41.403Z,68.81
2022-07-27T00:11:08.708Z,68.73
2022-07-27T00:13:35.155Z,68.52
2022-07-27T00:16:01.656Z,68.68
2022-07-27T00:18:28.115Z,68.61
2022-07-27T00:20:54.531Z,68.95
2022-07-27T00:23:20.943Z,68.55
2022-07-27T00:25:47.577Z,68.75
2022-07-27T00:28:14.070Z,68.85
2022-07-27T00:30:40.504Z,68.76
2022-07-27T00:33:07.140Z,68.75
2022-07-27T00:35:33.483Z,68.59
2022-07-27T00:38:02.225Z,68.79
2022-07-27T00:40:28.682Z,68.72
2022-07-27T00:42:55.277Z,68.74
2022-07-27T00:45:21.743Z,68.75
2022-07-27T00:47:53.117Z,68.92
2022-07-27T00:50:21.534Z,68.82
2022-07-27T00:52:48.695Z,68.96
2022-07-27T00:55:15.963Z,68.91
2022-07-27T00:57:58.148Z,68.87
2022-07-27T01:00:26.361Z,68.83
2022-07-27T01:02:52.878Z,68.85
2022-07-27T01:05:20.436Z,68.79
2022-07-27T01:07:47.673Z,68.61
2022-07-27T01:10:14.146Z,68.82
2022-07-27T01:12:41.069Z,68.80
2022-07-27T01:15:07.823Z,68.69
2022-07-27T01:17:34.186Z,68.84
2022-07-27T01:20:00.592Z,68.73
2022-07-27T01:22:27.237Z,68.74
2022-07-27T01:24:53.768Z,68.92
2022-07-27T01:27:20.348Z,68.71
2022-07-27T01:29:46.952Z,68.83
2022-07-27T01:32:13.421Z,68.61
2022-07-27T01:34:39.865Z,68.71
2022-07-27T01:37:06.432Z,68.48
2022-07-27T01:39:33.392Z,68.45
2022-07-27T01:42:00.291Z,68.41
2022-07-27T01:44:26.919Z,68.08
2022-07-27T01:46:53.444Z,68.43
2022-07-27T01:49:20.455Z,68.22
2022-07-27T01:51:46.928Z,68.20
2022-07-27T01:54:13.424Z,68.06
2022-07-27T01:56:40.621Z,68.12
2022-07-27T01:59:07.088Z,67.91
2022-07-27T02:01:33.566Z,67.90
2022-07-27T02:04:00.034Z,67.89
2022-07-27T02:06:26.528Z,67.71
2022-07-27T02:08:52.964Z,67.57
2022-07-27T02:11:37.855Z,67.65
2022-07-27T02:14:04.511Z,67.80
2022-07-27T02:16:31.051Z,67.39
2022-07-27T02:18:57.526Z,67.35
2022-07-27T02:21:23.949Z,67.34
2022-07-27T02:23:50.314Z,67.38
2022-07-27T02:26:16.684Z,67.23
2022-07-27T02:28:43.068Z,67.44
2022-07-27T02:31:09.560Z,67.29
2022-07-27T02:33:36.028Z,67.23
2022-07-27T02:36:02.467Z,67.20
2022-07-27T02:38:29.040Z,67.25
2022-07-27T02:40:55.521Z,67.40
2022-07-27T02:43:22.063Z,67.28
2022-07-27T02:45:49.767Z,67.13
2022-07-27T02:48:16.239Z,67.02
2022-07-27T02:50:42.636Z,67.11
2022-07-27T02:53:09.067Z,67.06
2022-07-27T02:55:35.494Z,66.97
2022-07-27T02:58:02.037Z,67.04
2022-07-27T03:00:28.545Z,67.37
2022-07-27T03:02:54.988Z,67.55
2022-07-27T03:05:21.376Z,67.67
2022-07-27T03:07:47.778Z,67.43
2022-07-27T03:10:14.197Z,67.57
2022-07-27T03:12:40.667Z,67.56
2022-07-27T03:15:07.405Z,67.64
2022-07-27T03:17:33.814Z,67.83
2022-07-27T03:20:00.298Z,67.66
2022-07-27T03:22:30.603Z,67.74
2022-07-27T03:24:57.215Z,67.82
2022-07-27T03:27:23.572Z,67.71
2022-07-27T03:29:49.976Z,67.64
2022-07-27T03:32:16.403Z,67.75
2022-07-27T03:34:42.863Z,67.70
2022-07-27T03:37:09.379Z,67.72
2022-07-27T03:39:35.819Z,67.64
2022-07-27T03:42:02.409Z,67.59
2022-07-27T03:44:28.851Z,67.61
2022-07-27T03:46:55.230Z,67.79
2022-07-27T03:49:21.683Z,67.44
2022-07-27T03:51:48.249Z,67.69
2022-07-27T03:54:14.727Z,67.55
2022-07-27T03:56:41.255Z,67.51
2022-07-27T03:59:07.678Z,67.61
2022-07-27T04:01:34.350Z,67.59
2022-07-27T04:04:00.818Z,67.54
2022-07-27T04:06:27.326Z,67.53
2022-07-27T04:08:59.383Z,67.58
2022-07-27T04:11:26.052Z,67.37
2022-07-27T04:13:56.273Z,67.28
2022-07-27T04:16:22.681Z,67.30
2022-07-27T04:18:49.105Z,67.49
2022-07-27T04:21:16.137Z,67.47
2022-07-27T04:23:42.545Z,67.46
2022-07-27T04:26:08.991Z,67.54
2022-07-27T04:28:35.456Z,67.12
2022-07-27T04:31:02.040Z,67.30
2022-07-27T04:33:28.667Z,67.08
2022-07-27T04:35:55.760Z,67.08
2022-07-27T04:38:22.204Z,67.13
2022-07-27T04:40:48.680Z,66.95
2022-07-27T04:43:15.246Z,66.97
2022-07-27T04:45:41.638Z,67.17
2022-07-27T04:48:08.518Z,66.81
2022-07-27T04:50:45.078Z,67.04
2022-07-27T04:53:12.134Z,66.94
2022-07-27T04:55:41.731Z,66.83
2022-07-27T04:58:08.339Z,66.67
2022-07-27T05:00:34.863Z,66.69
2022-07-27T05:03:01.248Z,66.61
2022-07-27T05:05:27.653Z,66.81
2022-07-27T05:07:54.551Z,66.56
2022-07-27T05:10:21.116Z,66.52
2022-07-27T05:12:48.001Z,66.68
2022-07-27T05:15:14.468Z,66.37
2022-07-27T05:17:41.093Z,66.42
2022-07-27T05:20:08.456Z,66.36
2022-07-27T05:22:39.354Z,66.38
2022-07-27T05:25:06.659Z,66.27
2022-07-27T05:27:33.060Z,66.23
2022-07-27T05:29:59.407Z,65.95
2022-07-27T05:32:25.802Z,66.12
2022-07-27T05:34:52.185Z,66.08
2022-07-27T05:37:18.637Z,66.18
2022-07-27T05:39:45.019Z,66.27
2022-07-27T05:42:11.489Z,66.07
2022-07-27T05:44:37.899Z,66.08
2022-07-27T05:47:06.232Z,66.11
2022-07-27T05:49:33.412Z,65.94
2022-07-27T05:51:59.858Z,65.79
2022-07-27T05:54:26.464Z,65.90
2022-07-27T05:56:52.972Z,66.05
2022-07-27T05:59:19.388Z,66.01
2022-07-27T06:01:48.216Z,65.77
2022-07-27T06:04:14.955Z,65.71
2022-07-27T06:07:00.321Z,65.76
2022-07-27T06:09:26.775Z,65.48
2022-07-27T06:11:53.197Z,65.80
2022-07-27T06:14:19.651Z,65.53
2022-07-27T06:16:46.121Z,65.58
2022-07-27T06:19:13.008Z,65.38
2022-07-27T06:21:39.798Z,65.42
2022-07-27T06:24:06.475Z,65.66
2022-07-27T06:26:32.975Z,65.51
2022-07-27T06:29:01.239Z,65.60
2022-07-27T06:31:35.209Z,65.64
2022-07-27T06:34:02.251Z,65.92
2022-07-27T06:36:28.687Z,65.97
2022-07-27T06:38:55.212Z,66.21
2022-07-27T06:41:21.575Z,66.21
2022-07-27T06:43:48.164Z,66.62
2022-07-27T06:46:14.673Z,66.69
2022-07-27T06:48:41.533Z,66.61
2022-07-27T06:51:08.659Z,66.79
2022-07-27T06:53:36.427Z,66.48
2022-07-27T06:56:04.214Z,66.47
2022-07-27T06:58:31.622Z,66.63
2022-07-27T07:00:59.649Z,66.58
2022-07-27T07:03:26.250Z,66.48
2022-07-27T07:05:52.747Z,66.43
2022-07-27T07:08:19.204Z,66.20
2022-07-27T07:10:45.824Z,66.83
2022-07-27T07:13:12.292Z,66.69
2022-07-27T07:15:39.697Z,66.59
2022-07-27T07:18:06.770Z,66.43
2022-07-27T07:20:33.859Z,66.46
2022-07-27T07:23:00.407Z,66.26
2022-07-27T07:25:27.951Z,66.40
2022-07-27T07:27:54.586Z,66.25
2022-07-27T07:30:23.266Z,66.40
2022-07-27T07:32:50.020Z,66.24
2022-07-27T07:35:17.045Z,66.40
2022-07-27T07:37:43.623Z,66.50
2022-07-27T07:40:41.558Z,66.23
2022-07-27T07:43:00.532Z,66.33
2022-07-27T07:45:28.131Z,66.26
2022-07-27T07:47:54.987Z,66.48
2022-07-27T07:50:22.202Z,66.39
2022-07-27T07:52:49.546Z,66.63
2022-07-27T07:55:16.035Z,66.23
2022-07-27T07:57:42.532Z,66.41
2022-07-27T08:00:09.717Z,66.34
2022-07-27T08:02:46.585Z,66.50
2022-07-27T08:05:13.088Z,66.46
2022-07-27T08:07:40.191Z,66.61
2022-07-27T08:10:07.888Z,66.48
2022-07-27T08:12:34.970Z,66.51
2022-07-27T08:15:01.401Z,66.42
2022-07-27T08:17:27.769Z,66.48
2022-07-27T08:19:54.158Z,66.35
2022-07-27T08:22:20.528Z,66.08
2022-07-27T08:24:46.993Z,66.30
2022-07-27T08:27:13.458Z,66.15
2022-07-27T08:29:40.384Z,66.11
2022-07-27T08:32:06.986Z,66.09
2022-07-27T08:34:33.540Z,66.09
2022-07-27T08:36:59.938Z,66.06
2022-07-27T08:40:27.894Z,65.87
2022-07-27T08:42:12.800Z,65.87
2022-07-27T08:44:40.171Z,65.91
2022-07-27T08:47:07.380Z,66.21
2022-07-27T08:49:43.238Z,66.18
2022-07-27T08:52:11.454Z,65.94
2022-07-27T08:54:41.528Z,66.07
2022-07-27T08:57:08.926Z,66.25
2022-07-27T08:59:35.524Z,66.24
2022-07-27T09:02:03.577Z,66.44
2022-07-27T09:04:31.102Z,66.36
2022-07-27T09:06:57.574Z,66.12
2022-07-27T09:09:23.982Z,66.04
2022-07-27T09:12:03.167Z,65.99
2022-07-27T09:14:33.710Z,66.21
2022-07-27T09:17:47.141Z,65.99
2022-07-27T09:19:53.761Z,65.95
2022-07-27T09:22:38.472Z,66.11
2022-07-27T09:25:05.129Z,65.90
2022-07-27T09:27:31.675Z,66.11
2022-07-27T09:30:09.370Z,65.92
2022-07-27T09:32:37.899Z,66.25
2022-07-27T09:35:19.592Z,65.81
2022-07-27T09:37:46.009Z,66.38
2022-07-27T09:40:13.720Z,65.75
2022-07-27T09:43:08.922Z,64.93
2022-07-27T09:45:32.617Z,64.68
2022-07-27T09:48:07.492Z,65.11
2022-07-27T09:50:35.967Z,65.61
2022-07-27T09:53:41.221Z,66.13
2022-07-27T09:56:06.030Z,66.23
2022-07-27T09:58:43.172Z,63.28
2022-07-27T10:01:15.451Z,62.73
2022-07-27T10:03:42.914Z,62.01
2022-07-27T10:06:09.939Z,61.93
2022-07-27T10:08:36.907Z,62.32
2022-07-27T10:11:04.099Z,61.99
2022-07-27T10:13:34.111Z,61.01
2022-07-27T10:16:17.915Z,60.82
2022-07-27T10:18:55.354Z,60.75
2022-07-27T10:21:23.298Z,60.81
2022-07-27T10:23:58.739Z,61.52
2022-07-27T10:26:25.139Z,61.45
2022-07-27T10:29:06.429Z,61.88
2022-07-27T10:31:34.066Z,62.09
2022-07-27T10:34:02.082Z,62.25
2022-07-27T10:36:28.457Z,62.60
2022-07-27T10:38:58.863Z,62.64
2022-07-27T10:41:25.284Z,62.81
2022-07-27T10:44:12.039Z,62.91
2022-07-27T10:46:43.255Z,63.15
2022-07-27T10:49:29.835Z,63.17
2022-07-27T10:51:58.076Z,63.24
2022-07-27T10:54:32.480Z,63.15
2022-07-27T10:57:00.047Z,63.20
2022-07-27T11:00:08.575Z,63.13
2022-07-27T11:02:40.879Z,63.01
2022-07-27T11:05:07.623Z,63.60
2022-07-27T11:07:44.338Z,63.17
2022-07-27T11:10:13.008Z,63.37
2022-07-27T11:12:40.435Z,63.71
2022-07-27T11:15:07.763Z,63.65
2022-07-27T11:20:31.304Z,64.05
2022-07-27T11:23:49.932Z,63.65
2022-07-27T11:25:58.892Z,63.60
2022-07-27T11:28:32.268Z,63.66
2022-07-27T11:30:59.469Z,63.85
2022-07-27T11:33:26.397Z,63.79
2022-07-27T11:35:54.354Z,64.06
2022-07-27T11:38:21.393Z,64.23
2022-07-27T11:40:57.923Z,64.20
2022-07-27T11:43:33.634Z,64.06
2022-07-27T11:46:12.749Z,64.35
2022-07-27T11:49:05.609Z,64.29
2022-07-27T11:51:33.130Z,64.23
2022-07-27T11:54:00.884Z,64.47
2022-07-27T11:56:29.115Z,64.32
2022-07-27T11:59:01.603Z,64.60
2022-07-27T12:01:28.904Z,64.49
2022-07-27T12:04:05.762Z,64.71
2022-07-27T12:06:33.695Z,64.68
2022-07-27T12:09:01.426Z,64.22
2022-07-27T12:11:34.065Z,64.69
2022-07-27T12:14:00.824Z,64.52
2022-07-27T12:16:27.373Z,64.69
2022-07-27T12:18:53.936Z,64.68
2022-07-27T12:21:20.539Z,64.63
2022-07-27T12:23:53.043Z,64.79
2022-07-27T12:26:25.343Z,64.63
2022-07-27T12:29:10.122Z,64.96
2022-07-27T12:31:37.663Z,64.94
2022-07-27T12:34:07.426Z,64.42
2022-07-27T12:36:33.915Z,64.91
2022-07-27T12:39:00.455Z,64.54
2022-07-27T12:41:32.585Z,64.66
2022-07-27T12:44:06.586Z,64.23
2022-07-27T12:46:33.273Z,63.91
2022-07-27T12:48:59.758Z,63.85
2022-07-27T12:51:26.429Z,63.96
2022-07-27T12:53:52.844Z,63.98
2022-07-27T12:56:26.948Z,64.01
2022-07-27T12:58:58.009Z,64.50
2022-07-27T13:01:24.464Z,64.76
2022-07-27T13:03:50.953Z,64.68
2022-07-27T13:06:17.398Z,64.53
2022-07-27T13:08:43.915Z,64.48
2022-07-27T13:11:10.700Z,64.31
2022-07-27T13:13:40.365Z,64.72
2022-07-27T13:16:06.796Z,64.62
2022-07-27T13:18:33.399Z,65.04
2022-07-27T13:20:59.835Z,65.11
2022-07-27T13:23:26.236Z,65.09
2022-07-27T13:25:52.789Z,65.03
2022-07-27T13:28:19.260Z,65.22
2022-07-27T13:30:45.700Z,65.19
2022-07-27T13:33:12.432Z,65.26
2022-07-27T13:35:38.896Z,65.29
2022-07-27T13:38:05.340Z,65.54
2022-07-27T13:40:31.771Z,65.53
2022-07-27T13:42:58.178Z,65.50
2022-07-27T13:45:24.688Z,65.52
2022-07-27T13:47:51.163Z,65.61
2022-07-27T13:50:19.517Z,65.26
2022-07-27T13:52:47.672Z,65.26
2022-07-27T13:55:15.004Z,65.21
2022-07-27T13:57:41.918Z,65.22
2022-07-27T14:00:08.701Z,65.49
2022-07-27T14:02:35.166Z,65.36
2022-07-27T14:05:14.639Z,65.40
2022-07-27T14:07:43.248Z,64.64
2022-07-27T14:10:28.758Z,64.99
2022-07-27T14:12:58.953Z,65.04
2022-07-27T14:15:25.767Z,65.48
2022-07-27T14:17:52.156Z,65.56
2022-07-27T14:20:18.688Z,65.33
2022-07-27T14:22:45.193Z,65.52
2022-07-27T14:25:11.650Z,65.21
2022-07-27T14:27:38.040Z,65.44
2022-07-27T14:30:05.323Z,65.46
2022-07-27T14:32:31.716Z,65.53
2022-07-27T14:34:58.216Z,65.64
2022-07-27T14:37:24.631Z,65.41
2022-07-27T14:39:51.027Z,65.23
2022-07-27T14:42:19.630Z,64.87
2022-07-27T14:44:46.020Z,65.07
2022-07-27T14:47:12.678Z,65.26
2022-07-27T14:49:39.097Z,65.51
2022-07-27T14:52:08.565Z,65.81
2022-07-27T14:54:37.795Z,65.78
2022-07-27T14:57:05.699Z,65.94
2022-07-27T14:59:32.326Z,65.97
2022-07-27T15:01:58.817Z,66.03
2022-07-27T15:04:25.741Z,66.02
2022-07-27T15:06:52.422Z,66.20
2022-07-27T15:09:18.873Z,66.33
2022-07-27T15:11:46.696Z,66.37
2022-07-27T15:14:13.048Z,66.22
2022-07-27T15:16:39.517Z,66.04
2022-07-27T15:19:05.927Z,66.14
2022-07-27T15:21:32.307Z,66.02
2022-07-27T15:23:58.795Z,66.40
2022-07-27T15:26:25.283Z,66.38
2022-07-27T15:28:51.690Z,66.33
2022-07-27T15:31:18.215Z,64.58
2022-07-27T15:33:44.622Z,65.25
2022-07-27T15:36:31.600Z,65.24
2022-07-27T15:38:58.184Z,65.02
2022-07-27T15:41:24.610Z,65.18
2022-07-27T15:43:51.149Z,65.20
2022-07-27T15:46:18.554Z,65.04
2022-07-27T15:48:54.186Z,65.07
2022-07-27T15:51:20.955Z,64.60
2022-07-27T15:53:47.354Z,64.42
2022-07-27T15:56:13.812Z,64.65
2022-07-27T15:58:40.261Z,64.89
2022-07-27T16:01:08.369Z,64.71
2022-07-27T16:03:38.519Z,64.42
2022-07-27T16:06:05.063Z,64.73
2022-07-27T16:08:31.531Z,64.86
2022-07-27T16:10:58.261Z,65.07
2022-07-27T16:13:25.407Z,65.09
2022-07-27T16:16:10.779Z,65.28
2022-07-27T16:18:39.056Z,65.09
2022-07-27T16:21:06.093Z,65.20
2022-07-27T16:23:32.730Z,65.50
2022-07-27T16:26:07.044Z,65.40
2022-07-27T16:28:36.033Z,65.54
2022-07-27T16:31:02.992Z,65.65
2022-07-27T16:33:30.325Z,65.74
2022-07-27T16:35:56.785Z,65.37
2022-07-27T16:38:23.649Z,65.43
2022-07-27T16:40:50.053Z,65.39
2022-07-27T16:43:16.557Z,65.48
2022-07-27T16:45:42.941Z,65.30
2022-07-27T16:48:09.933Z,65.16
2022-07-27T16:50:36.312Z,65.40
2022-07-27T16:53:02.706Z,65.25
2022-07-27T16:55:29.798Z,64.96
2022-07-27T16:57:56.231Z,65.30
2022-07-27T17:00:22.652Z,65.27
2022-07-27T17:02:49.064Z,65.16
2022-07-27T17:05:15.504Z,65.08
2022-07-27T17:07:42.862Z,65.25
2022-07-27T17:10:09.734Z,65.12
2022-07-27T17:12:39.197Z,64.94
2022-07-27T17:15:06.357Z,65.30
2022-07-27T17:17:32.709Z,65.20
2022-07-27T17:19:59.085Z,65.33
2022-07-27T17:22:25.534Z,65.44
2022-07-27T17:24:51.957Z,65.45
2022-07-27T17:27:18.365Z,65.14
2022-07-27T17:29:44.820Z,65.11
2022-07-27T17:32:11.248Z,64.99
2022-07-27T17:34:37.642Z,65.09
2022-07-27T17:37:04.007Z,65.06
2022-07-27T17:39:30.733Z,65.33
2022-07-27T17:41:57.440Z,65.27
2022-07-27T17:44:23.923Z,65.12
2022-07-27T17:46:50.455Z,65.18
2022-07-27T17:49:17.519Z,65.23
2022-07-27T17:51:44.172Z,64.96
2022-07-27T17:54:10.576Z,65.22
2022-07-27T17:56:37.009Z,65.10
2022-07-27T17:59:34.790Z,64.92
2022-07-27T18:01:52.219Z,65.25
2022-07-27T18:04:18.756Z,64.81
2022-07-27T18:06:45.198Z,64.99
2022-07-27T18:09:12.079Z,64.58
2022-07-27T18:11:38.737Z,64.62
2022-07-27T18:14:05.151Z,64.68
2022-07-27T18:16:35.119Z,64.81
2022-07-27T18:19:06.947Z,64.86
2022-07-27T18:21:33.423Z,64.94
2022-07-27T18:23:59.798Z,64.82
2022-07-27T18:26:26.199Z,64.92
2022-07-27T18:28:56.166Z,65.03
2022-07-27T18:31:22.715Z,64.74
2022-07-27T18:33:50.891Z,64.68
2022-07-27T18:36:17.979Z,64.54
2022-07-27T18:38:49.622Z,64.69
2022-07-27T18:41:17.620Z,64.60
2022-07-27T18:43:51.333Z,64.74
2022-07-27T18:46:18.935Z,64.79
2022-07-27T18:48:45.525Z,64.71
2022-07-27T18:51:12.209Z,64.93
2022-07-27T18:53:38.655Z,65.04
2022-07-27T18:56:05.253Z,65.15
2022-07-27T18:58:31.719Z,65.35
2022-07-27T19:00:58.545Z,65.35
2022-07-27T19:03:27.845Z,65.04
2022-07-27T19:05:54.840Z,65.17
2022-07-27T19:08:21.970Z,65.21
2022-07-27T19:10:48.411Z,65.17
2022-07-27T19:13:14.890Z,65.53
2022-07-27T19:15:41.472Z,65.22
2022-07-27T19:18:08.121Z,65.45
2022-07-27T19:20:36.448Z,65.53
2022-07-27T19:23:03.233Z,65.59
2022-07-27T19:25:33.834Z,65.68
2022-07-27T19:28:01.055Z,65.61
2022-07-27T19:30:27.815Z,65.80
2022-07-27T19:32:54.263Z,65.66
2022-07-27T19:35:20.708Z,65.90
2022-07-27T19:37:47.150Z,65.84
2022-07-27T19:40:42.615Z,65.68
2022-07-27T19:43:00.131Z,65.81
2022-07-27T19:45:26.636Z,65.80
2022-07-27T19:47:53.008Z,65.80
2022-07-27T19:50:19.589Z,65.79
2022-07-27T19:52:46.098Z,65.66
2022-07-27T19:55:12.490Z,65.76
2022-07-27T19:57:41.651Z,65.53
2022-07-27T20:00:09.181Z,65.29
2022-07-27T20:02:35.810Z,65.30
2022-07-27T20:05:02.409Z,65.34
2022-07-27T20:07:29.104Z,65.18
2022-07-27T20:09:55.551Z,65.15
2022-07-27T20:12:22.011Z,65.04
2022-07-27T20:14:48.532Z,65.28
2022-07-27T20:17:15.316Z,65.20
2022-07-27T20:19:41.842Z,65.17
2022-07-27T20:22:08.416Z,65.15
2022-07-27T20:24:34.877Z,65.55
2022-07-27T20:27:01.388Z,65.61
2022-07-27T20:29:31.674Z,65.54
2022-07-27T20:31:59.750Z,65.62
2022-07-27T20:34:26.429Z,65.44
2022-07-27T20:36:54.071Z,65.45
2022-07-27T20:39:20.725Z,65.29
2022-07-27T20:41:47.363Z,65.45
2022-07-27T20:44:13.868Z,65.36
2022-07-27T20:46:40.282Z,65.30
2022-07-27T20:49:06.809Z,65.33
2022-07-27T20:51:33.311Z,65.20
2022-07-27T20:54:00.495Z,65.40
2022-07-27T20:56:26.904Z,65.22
2022-07-27T20:58:53.351Z,65.30
2022-07-27T21:01:19.890Z,65.13
2022-07-27T21:03:46.370Z,65.33
2022-07-27T21:06:12.772Z,65.23
2022-07-27T21:08:44.338Z,65.38
2022-07-27T21:11:13.581Z,65.42
2022-07-27T21:13:40.227Z,65.24
2022-07-27T21:16:06.675Z,65.47
2022-07-27T21:18:33.603Z,65.23
2022-07-27T21:21:00.071Z,65.20
2022-07-27T21:23:45.238Z,65.29
2022-07-27T21:26:11.636Z,65.18
2022-07-27T21:28:41.904Z,65.40
2022-07-27T21:31:08.811Z,65.51
2022-07-27T21:33:39.631Z,65.58
2022-07-27T21:36:06.607Z,65.41
2022-07-27T21:38:33.033Z,65.38
2022-07-27T21:40:59.446Z,65.38
2022-07-27T21:43:25.923Z,65.57
2022-07-27T21:45:52.589Z,65.30
2022-07-27T21:48:19.192Z,65.44
2022-07-27T21:50:45.590Z,65.38
2022-07-27T21:53:12.092Z,65.20
2022-07-27T21:55:40.752Z,65.35
2022-07-27T21:58:08.466Z,65.43
2022-07-27T22:00:34.935Z,65.19
2022-07-27T22:03:01.380Z,65.25
2022-07-27T22:05:27.938Z,65.30
2022-07-27T22:07:54.447Z,65.15
2022-07-27T22:10:20.896Z,64.99
2022-07-27T22:12:47.415Z,65.06
2022-07-27T22:15:13.816Z,65.02
2022-07-27T22:17:50.156Z,65.04
2022-07-27T22:20:17.694Z,64.83
2022-07-27T22:22:44.203Z,64.84
2022-07-27T22:25:10.740Z,64.80
2022-07-27T22:27:37.175Z,64.69
2022-07-27T22:30:03.781Z,64.83
2022-07-27T22:32:30.211Z,64.66
2022-07-27T22:34:56.610Z,64.62
2022-07-27T22:37:22.972Z,64.59
2022-07-27T22:39:49.391Z,64.58
2022-07-27T22:42:15.752Z,64.37
2022-07-27T22:44:43.185Z,64.45
2022-07-27T22:47:09.788Z,64.43
2022-07-27T22:49:36.555Z,64.59
2022-07-27T22:52:04.131Z,64.33
2022-07-27T22:54:34.417Z,64.35
2022-07-27T22:57:00.789Z,64.41
2022-07-27T22:59:27.183Z,64.27
2022-07-27T23:01:53.930Z,64.23
2022-07-27T23:04:20.591Z,64.25
2022-07-27T23:06:47.089Z,64.19
2022-07-27T23:09:13.584Z,64.31
2022-07-27T23:11:40.068Z,64.21
2022-07-27T23:14:07.472Z,64.30
2022-07-27T23:16:34.417Z,64.10
2022-07-27T23:19:00.959Z,64.12
2022-07-27T23:21:27.394Z,64.12
2022-07-27T23:23:54.416Z,64.01
2022-07-27T23:26:25.686Z,64.17
2022-07-27T23:28:52.800Z,64.14
2022-07-27T23:31:19.259Z,63.96
2022-07-27T23:33:45.873Z,63.90
2022-07-27T23:36:12.351Z,63.91
2022-07-27T23:38:38.760Z,63.70
2022-07-27T23:43:48.824Z,63.67
2022-07-27T23:46:15.281Z,63.66
2022-07-27T23:48:41.859Z,63.66
2022-07-27T23:51:09.194Z,63.99
2022-07-27T23:53:35.723Z,63.97
2022-07-27T23:56:02.253Z,64.14
2022-07-27T23:58:29.643Z,64.24
